createdAt,value
2023-05-30T00:00:45.238Z,11.09
2023-05-30T00:01:45.139Z,11.07
2023-05-30T00:02:45.472Z,11.06
2023-05-30T00:03:45.258Z,11.03
2023-05-30T00:04:45.107Z,11.00
2023-05-30T00:05:45.110Z,10.99
2023-05-30T00:06:45.096Z,10.96
2023-05-30T00:07:45.066Z,10.99
2023-05-30T00:08:45.168Z,10.96
2023-05-30T00:09:45.047Z,10.94
2023-05-30T00:10:45.024Z,10.94
2023-05-30T00:11:45.051Z,10.89
2023-05-30T00:12:45.039Z,10.88
2023-05-30T00:13:44.983Z,10.86
2023-05-30T00:14:44.975Z,10.85
2023-05-30T00:15:45.024Z,10.84
2023-05-30T00:16:44.957Z,10.84
2023-05-30T00:17:44.980Z,10.84
2023-05-30T00:18:44.935Z,10.81
2023-05-30T00:19:44.906Z,10.79
2023-05-30T00:20:44.921Z,10.78
2023-05-30T00:21:44.892Z,10.79
2023-05-30T00:22:44.890Z,10.78
2023-05-30T00:23:44.854Z,10.78
2023-05-30T00:24:44.849Z,10.74
2023-05-30T00:25:44.823Z,10.76
2023-05-30T00:26:44.809Z,10.76
2023-05-30T00:27:44.860Z,10.74
2023-05-30T00:28:44.917Z,10.74
2023-05-30T00:29:44.762Z,10.74
2023-05-30T00:30:44.759Z,10.73
2023-05-30T00:31:44.779Z,10.71
2023-05-30T00:32:44.758Z,10.71
2023-05-30T00:33:44.769Z,10.71
2023-05-30T00:34:44.703Z,10.70
2023-05-30T00:35:44.693Z,10.68
2023-05-30T00:36:44.676Z,10.66
2023-05-30T00:37:44.687Z,10.64
2023-05-30T00:38:44.656Z,10.61
2023-05-30T00:39:44.696Z,10.59
2023-05-30T00:40:45.519Z,10.56
2023-05-30T00:41:44.615Z,10.53
2023-05-30T00:42:44.606Z,10.52
2023-05-30T00:43:44.589Z,10.48
2023-05-30T00:44:44.577Z,10.48
2023-05-30T00:45:44.614Z,10.45
2023-05-30T00:46:44.545Z,10.44
2023-05-30T00:47:44.621Z,10.42
2023-05-30T00:48:44.543Z,10.40
2023-05-30T00:49:44.496Z,10.40
2023-05-30T00:50:44.482Z,10.38
2023-05-30T00:51:44.493Z,10.34
2023-05-30T00:52:44.469Z,10.34
2023-05-30T00:53:44.465Z,10.33
2023-05-30T00:54:44.454Z,10.33
2023-05-30T00:55:44.444Z,10.29
2023-05-30T00:56:44.410Z,10.27
2023-05-30T00:57:44.419Z,10.26
2023-05-30T00:58:44.404Z,10.27
2023-05-30T00:59:44.376Z,10.25
2023-05-30T01:00:44.358Z,10.22
2023-05-30T01:01:44.418Z,10.23
2023-05-30T01:02:44.411Z,10.22
2023-05-30T01:03:44.417Z,10.20
2023-05-30T01:04:44.329Z,10.18
2023-05-30T01:05:44.324Z,10.15
2023-05-30T01:06:44.285Z,10.15
2023-05-30T01:07:44.269Z,10.12
2023-05-30T01:08:44.279Z,10.11
2023-05-30T01:09:44.305Z,10.09
2023-05-30T01:10:44.224Z,10.08
2023-05-30T01:11:44.222Z,10.07
2023-05-30T01:12:44.305Z,10.05
2023-05-30T01:13:44.191Z,10.04
2023-05-30T01:14:44.179Z,10.02
2023-05-30T01:15:44.209Z,10.02
2023-05-30T01:16:44.220Z,10.04
2023-05-30T01:17:44.219Z,10.01
2023-05-30T01:18:44.122Z,9.97
2023-05-30T01:19:44.107Z,9.97
2023-05-30T01:20:44.146Z,9.97
2023-05-30T01:21:44.132Z,9.97
2023-05-30T01:22:44.067Z,9.94
2023-05-30T01:23:44.056Z,9.93
2023-05-30T01:24:44.083Z,9.94
2023-05-30T01:25:44.038Z,9.93
2023-05-30T01:26:44.017Z,9.93
2023-05-30T01:27:44.022Z,9.90
2023-05-30T01:28:43.982Z,9.87
2023-05-30T01:29:43.988Z,9.84
2023-05-30T01:30:43.962Z,9.84
2023-05-30T01:31:44.045Z,9.84
2023-05-30T01:32:44.011Z,9.83
2023-05-30T01:33:43.944Z,9.79
2023-05-30T01:34:43.904Z,9.78
2023-05-30T01:35:43.900Z,9.76
2023-05-30T01:36:43.893Z,9.76
2023-05-30T01:37:43.872Z,9.74
2023-05-30T01:38:43.893Z,9.74
2023-05-30T01:39:43.851Z,9.74
2023-05-30T01:40:43.844Z,9.74
2023-05-30T01:41:43.813Z,9.72
2023-05-30T01:42:43.800Z,9.71
2023-05-30T01:43:43.792Z,9.69
2023-05-30T01:44:43.824Z,9.69
2023-05-30T01:45:43.812Z,9.69
2023-05-30T01:46:43.755Z,9.69
2023-05-30T01:47:43.783Z,9.69
2023-05-30T01:48:43.725Z,9.66
2023-05-30T01:49:43.712Z,9.64
2023-05-30T01:50:43.720Z,9.64
2023-05-30T01:51:43.684Z,9.60
2023-05-30T01:52:43.670Z,9.60
2023-05-30T01:53:43.660Z,9.58
2023-05-30T01:54:43.660Z,9.60
2023-05-30T01:55:43.726Z,9.58
2023-05-30T01:56:43.625Z,9.57
2023-05-30T01:57:43.606Z,9.54
2023-05-30T01:58:43.603Z,9.56
2023-05-30T01:59:43.580Z,9.54
2023-05-30T02:00:43.584Z,9.54
2023-05-30T02:01:43.649Z,9.53
2023-05-30T02:02:43.556Z,9.53
2023-05-30T02:03:43.562Z,9.51
2023-05-30T02:04:43.516Z,9.47
2023-05-30T02:05:43.568Z,9.46
2023-05-30T02:06:43.559Z,9.46
2023-05-30T02:07:43.498Z,9.46
2023-05-30T02:08:43.459Z,9.42
2023-05-30T02:09:43.456Z,9.42
2023-05-30T02:10:43.441Z,9.40
2023-05-30T02:11:43.574Z,9.40
2023-05-30T02:12:43.425Z,9.36
2023-05-30T02:13:43.408Z,9.36
2023-05-30T02:14:43.394Z,9.35
2023-05-30T02:15:43.378Z,9.33
2023-05-30T02:16:43.433Z,9.31
2023-05-30T02:17:43.403Z,9.29
2023-05-30T02:18:43.351Z,9.28
2023-05-30T02:19:43.352Z,9.24
2023-05-30T02:20:43.378Z,9.24
2023-05-30T02:21:43.310Z,9.21
2023-05-30T02:22:43.350Z,9.21
2023-05-30T02:23:43.291Z,9.18
2023-05-30T02:24:43.282Z,9.17
2023-05-30T02:25:43.237Z,9.15
2023-05-30T02:26:43.264Z,9.15
2023-05-30T02:27:43.216Z,9.14
2023-05-30T02:28:43.211Z,9.13
2023-05-30T02:29:43.238Z,9.13
2023-05-30T02:30:43.177Z,9.11
2023-05-30T02:31:43.218Z,9.11
2023-05-30T02:32:43.176Z,9.10
2023-05-30T02:33:43.192Z,9.08
2023-05-30T02:34:43.123Z,9.05
2023-05-30T02:35:43.127Z,9.05
2023-05-30T02:36:43.098Z,9.04
2023-05-30T02:37:43.102Z,9.02
2023-05-30T02:38:43.079Z,9.01
2023-05-30T02:39:43.060Z,8.99
2023-05-30T02:40:43.045Z,8.98
2023-05-30T02:41:43.070Z,8.95
2023-05-30T02:42:43.023Z,8.95
2023-05-30T02:43:43.015Z,8.94
2023-05-30T02:44:43.001Z,8.94
2023-05-30T02:45:43.008Z,8.94
2023-05-30T02:46:43.039Z,8.91
2023-05-30T02:47:43.023Z,8.91
2023-05-30T02:48:42.943Z,8.87
2023-05-30T02:49:42.932Z,8.87
2023-05-30T02:50:42.946Z,8.87
2023-05-30T02:51:42.964Z,8.87
2023-05-30T02:52:42.905Z,8.89
2023-05-30T02:53:42.919Z,8.87
2023-05-30T02:54:42.878Z,8.91
2023-05-30T02:55:42.909Z,8.91
2023-05-30T02:56:42.856Z,8.91
2023-05-30T02:57:42.837Z,8.92
2023-05-30T02:58:42.812Z,8.94
2023-05-30T02:59:42.835Z,8.95
2023-05-30T03:00:42.793Z,8.95
2023-05-30T03:01:42.831Z,8.96
2023-05-30T03:02:42.832Z,8.95
2023-05-30T03:03:42.802Z,8.95
2023-05-30T03:04:42.774Z,8.94
2023-05-30T03:05:42.715Z,8.95
2023-05-30T03:06:42.725Z,8.95
2023-05-30T03:07:42.700Z,8.96
2023-05-30T03:08:42.737Z,8.96
2023-05-30T03:09:42.674Z,8.98
2023-05-30T03:10:42.720Z,8.98
2023-05-30T03:11:42.682Z,8.98
2023-05-30T03:12:42.636Z,8.99
2023-05-30T03:13:42.634Z,9.01
2023-05-30T03:14:42.681Z,9.02
2023-05-30T03:15:42.616Z,9.02
2023-05-30T03:16:42.774Z,9.04
2023-05-30T03:17:42.581Z,9.05
2023-05-30T03:18:42.557Z,9.10
2023-05-30T03:19:42.546Z,9.11
2023-05-30T03:20:42.562Z,9.15
2023-05-30T03:21:42.529Z,9.15
2023-05-30T03:22:42.512Z,9.17
2023-05-30T03:23:42.504Z,9.18
2023-05-30T03:24:42.479Z,9.18
2023-05-30T03:25:42.464Z,9.20
2023-05-30T03:26:42.446Z,9.23
2023-05-30T03:27:42.474Z,9.23
2023-05-30T03:28:42.417Z,9.23
2023-05-30T03:29:42.399Z,9.24
2023-05-30T03:30:42.388Z,9.24
2023-05-30T03:31:42.432Z,9.23
2023-05-30T03:32:42.398Z,9.24
2023-05-30T03:33:42.360Z,9.24
2023-05-30T03:34:42.340Z,9.28
2023-05-30T03:35:42.332Z,9.28
2023-05-30T03:36:42.329Z,9.29
2023-05-30T03:37:42.306Z,9.29
2023-05-30T03:38:42.308Z,9.31
2023-05-30T03:39:42.278Z,9.33
2023-05-30T03:40:42.255Z,9.32
2023-05-30T03:41:42.431Z,9.32
2023-05-30T03:42:44.544Z,9.35
2023-05-30T03:43:42.222Z,9.33
2023-05-30T03:44:42.241Z,9.33
2023-05-30T03:45:42.240Z,9.35
2023-05-30T03:46:42.185Z,9.35
2023-05-30T03:47:42.194Z,9.35
2023-05-30T03:48:42.166Z,9.35
2023-05-30T03:49:42.139Z,9.36
2023-05-30T03:50:42.146Z,9.35
2023-05-30T03:51:42.113Z,9.36
2023-05-30T03:52:42.109Z,9.36
2023-05-30T03:53:42.101Z,9.38
2023-05-30T03:54:42.072Z,9.38
2023-05-30T03:55:42.089Z,9.38
2023-05-30T03:56:42.070Z,9.39
2023-05-30T03:57:42.030Z,9.40
2023-05-30T03:58:42.032Z,9.42
2023-05-30T03:59:42.033Z,9.43
2023-05-30T04:00:42.009Z,9.42
2023-05-30T04:01:42.041Z,9.46
2023-05-30T04:02:42.054Z,9.46
2023-05-30T04:03:42.021Z,9.46
2023-05-30T04:04:41.937Z,9.46
2023-05-30T04:05:41.962Z,9.47
2023-05-30T04:06:41.918Z,9.48
2023-05-30T04:07:41.924Z,9.48
2023-05-30T04:08:41.889Z,9.53
2023-05-30T04:09:41.867Z,9.53
2023-05-30T04:10:42.573Z,9.56
2023-05-30T04:11:41.848Z,9.57
2023-05-30T04:12:41.886Z,9.58
2023-05-30T04:13:41.850Z,9.58
2023-05-30T04:14:41.818Z,9.60
2023-05-30T04:15:41.799Z,9.60
2023-05-30T04:16:41.789Z,9.58
2023-05-30T04:17:41.836Z,9.58
2023-05-30T04:18:41.766Z,9.58
2023-05-30T04:19:41.803Z,9.60
2023-05-30T04:20:41.791Z,9.61
2023-05-30T04:21:41.748Z,9.61
2023-05-30T04:22:41.713Z,9.64
2023-05-30T04:23:41.695Z,9.65
2023-05-30T04:24:41.721Z,9.68
2023-05-30T04:25:41.688Z,9.66
2023-05-30T04:26:41.668Z,9.65
2023-05-30T04:27:50.130Z,9.65
2023-05-30T04:28:42.633Z,9.65
2023-05-30T04:29:41.619Z,9.68
2023-05-30T04:30:41.637Z,9.68
2023-05-30T04:31:41.646Z,9.69
2023-05-30T04:32:41.589Z,9.71
2023-05-30T04:33:41.562Z,9.72
2023-05-30T04:34:41.579Z,9.75
2023-05-30T04:35:41.539Z,9.76
2023-05-30T04:36:41.535Z,9.78
2023-05-30T04:37:41.709Z,9.78
2023-05-30T04:38:41.497Z,9.78
2023-05-30T04:39:41.498Z,9.78
2023-05-30T04:40:41.481Z,9.79
2023-05-30T04:41:41.495Z,9.81
2023-05-30T04:42:41.438Z,9.81
2023-05-30T04:43:41.471Z,9.84
2023-05-30T04:44:41.418Z,9.84
2023-05-30T04:45:41.407Z,9.86
2023-05-30T04:46:41.413Z,9.87
2023-05-30T04:47:41.399Z,9.86
2023-05-30T04:48:41.387Z,9.87
2023-05-30T04:49:41.359Z,9.87
2023-05-30T04:50:41.336Z,9.90
2023-05-30T04:51:41.321Z,9.90
2023-05-30T04:52:41.309Z,9.90
2023-05-30T04:53:41.309Z,9.91
2023-05-30T04:54:41.316Z,9.91
2023-05-30T04:55:41.263Z,9.93
2023-05-30T04:56:41.264Z,9.96
2023-05-30T04:57:41.293Z,9.91
2023-05-30T04:58:41.234Z,9.90
2023-05-30T04:59:41.244Z,9.93
2023-05-30T05:00:41.202Z,9.93
2023-05-30T05:01:41.223Z,9.91
2023-05-30T05:02:41.326Z,9.91
2023-05-30T05:03:41.287Z,9.89
2023-05-30T05:04:41.150Z,9.91
2023-05-30T05:05:41.224Z,9.93
2023-05-30T05:06:41.114Z,9.97
2023-05-30T05:07:42.479Z,10.01
2023-05-30T05:08:41.147Z,10.02
2023-05-30T05:09:41.076Z,10.07
2023-05-30T05:10:41.086Z,10.08
2023-05-30T05:11:41.080Z,10.08
2023-05-30T05:12:41.055Z,10.12
2023-05-30T05:13:41.052Z,10.17
2023-05-30T05:14:41.014Z,10.18
2023-05-30T05:15:41.067Z,10.23
2023-05-30T05:16:41.021Z,10.26
2023-05-30T05:17:40.996Z,10.27
2023-05-30T05:18:40.985Z,10.29
2023-05-30T05:19:40.964Z,10.29
2023-05-30T05:20:40.992Z,10.33
2023-05-30T05:21:40.933Z,10.33
2023-05-30T05:22:41.267Z,10.38
2023-05-30T05:23:40.936Z,10.36
2023-05-30T05:24:40.894Z,10.40
2023-05-30T05:25:40.875Z,10.38
2023-05-30T05:26:40.854Z,10.40
2023-05-30T05:27:40.901Z,10.41
2023-05-30T05:28:40.869Z,10.42
2023-05-30T05:29:40.841Z,10.47
2023-05-30T05:30:40.805Z,10.52
2023-05-30T05:31:40.876Z,10.56
2023-05-30T05:32:40.869Z,10.59
2023-05-30T05:33:40.771Z,10.61
2023-05-30T05:34:40.790Z,10.63
2023-05-30T05:35:40.751Z,10.63
2023-05-30T05:36:40.731Z,10.61
2023-05-30T05:37:40.714Z,10.63
2023-05-30T05:38:40.710Z,10.63
2023-05-30T05:39:40.716Z,10.67
2023-05-30T05:40:40.719Z,10.67
2023-05-30T05:41:40.679Z,10.68
2023-05-30T05:42:40.710Z,10.66
2023-05-30T05:43:40.639Z,10.66
2023-05-30T05:44:40.627Z,10.67
2023-05-30T05:45:40.608Z,10.67
2023-05-30T05:46:40.909Z,10.67
2023-05-30T05:47:40.640Z,10.66
2023-05-30T05:48:40.586Z,10.67
2023-05-30T05:49:40.561Z,10.68
2023-05-30T05:50:40.560Z,10.70
2023-05-30T05:51:40.553Z,10.73
2023-05-30T05:52:40.541Z,10.74
2023-05-30T05:53:40.512Z,10.78
2023-05-30T05:54:40.531Z,10.81
2023-05-30T05:55:40.479Z,10.82
2023-05-30T05:56:40.515Z,10.81
2023-05-30T05:57:40.482Z,10.78
2023-05-30T05:58:40.477Z,10.73
2023-05-30T05:59:40.433Z,10.74
2023-05-30T06:00:40.412Z,10.78
2023-05-30T06:01:40.400Z,10.76
2023-05-30T06:02:40.513Z,10.74
2023-05-30T06:03:40.563Z,10.74
2023-05-30T06:04:40.382Z,10.74
2023-05-30T06:05:40.361Z,10.73
2023-05-30T06:06:40.332Z,10.76
2023-05-30T06:07:40.338Z,10.76
2023-05-30T06:08:40.348Z,10.74
2023-05-30T06:09:40.343Z,10.73
2023-05-30T06:10:40.308Z,10.70
2023-05-30T06:11:40.265Z,10.67
2023-05-30T06:12:40.261Z,10.70
2023-05-30T06:13:40.236Z,10.71
2023-05-30T06:14:40.280Z,10.71
2023-05-30T06:15:40.319Z,10.76
2023-05-30T06:16:40.238Z,10.76
2023-05-30T06:17:40.236Z,10.73
2023-05-30T06:18:40.187Z,10.73
2023-05-30T06:19:40.157Z,10.70
2023-05-30T06:20:40.164Z,10.73
2023-05-30T06:21:40.235Z,10.74
2023-05-30T06:22:40.120Z,10.76
2023-05-30T06:23:40.135Z,10.82
2023-05-30T06:24:40.110Z,10.86
2023-05-30T06:25:40.090Z,10.88
2023-05-30T06:26:40.084Z,10.91
2023-05-30T06:27:40.122Z,10.94
2023-05-30T06:28:40.059Z,11.03
2023-05-30T06:29:40.037Z,11.06
2023-05-30T06:30:40.033Z,11.09
2023-05-30T06:31:40.037Z,11.06
2023-05-30T06:32:40.171Z,11.10
2023-05-30T06:33:40.004Z,11.10
2023-05-30T06:34:39.979Z,11.11
2023-05-30T06:35:39.964Z,11.17
2023-05-30T06:36:39.944Z,11.21
2023-05-30T06:37:39.930Z,11.24
2023-05-30T06:38:39.926Z,11.25
2023-05-30T06:39:40.320Z,11.27
2023-05-30T06:40:39.888Z,11.35
2023-05-30T06:41:39.890Z,11.37
2023-05-30T06:42:39.857Z,11.43
2023-05-30T06:43:39.878Z,11.46
2023-05-30T06:44:39.828Z,11.54
2023-05-30T06:45:39.838Z,11.62
2023-05-30T06:46:39.835Z,11.75
2023-05-30T06:47:39.909Z,11.82
2023-05-30T06:48:39.775Z,11.94
2023-05-30T06:49:39.781Z,12.01
2023-05-30T06:50:39.769Z,12.10
2023-05-30T06:51:39.951Z,12.16
2023-05-30T06:52:39.761Z,12.19
2023-05-30T06:53:39.712Z,12.21
2023-05-30T06:54:39.695Z,12.20
2023-05-30T06:55:39.715Z,12.14
2023-05-30T06:56:39.682Z,12.14
2023-05-30T06:57:39.686Z,12.13
2023-05-30T06:58:39.677Z,12.14
2023-05-30T06:59:39.629Z,12.12
2023-05-30T07:00:39.625Z,12.14
2023-05-30T07:01:39.638Z,12.14
2023-05-30T07:02:39.627Z,12.17
2023-05-30T07:03:39.614Z,12.19
2023-05-30T07:04:39.609Z,12.20
2023-05-30T07:05:39.556Z,12.24
2023-05-30T07:06:39.553Z,12.31
2023-05-30T07:07:39.539Z,12.35
2023-05-30T07:08:39.508Z,12.37
2023-05-30T07:09:39.524Z,12.37
2023-05-30T07:10:39.485Z,12.42
2023-05-30T07:11:39.484Z,12.50
2023-05-30T07:12:39.458Z,12.57
2023-05-30T07:13:39.463Z,12.64
2023-05-30T07:14:39.427Z,12.71
2023-05-30T07:15:39.440Z,12.79
2023-05-30T07:16:39.438Z,12.87
2023-05-30T07:17:39.425Z,12.90
2023-05-30T07:18:39.412Z,12.93
2023-05-30T07:19:39.383Z,12.97
2023-05-30T07:20:39.380Z,12.86
2023-05-30T07:21:39.442Z,12.83
2023-05-30T07:22:39.345Z,12.79
2023-05-30T07:23:39.317Z,12.77
2023-05-30T07:24:39.317Z,12.83
2023-05-30T07:25:39.306Z,12.85
2023-05-30T07:26:39.310Z,12.83
2023-05-30T07:27:39.329Z,12.85
2023-05-30T07:28:39.258Z,12.87
2023-05-30T07:29:39.264Z,12.95
2023-05-30T07:30:39.230Z,13.05
2023-05-30T07:31:39.272Z,13.15
2023-05-30T07:32:39.271Z,13.20
2023-05-30T07:33:39.221Z,13.19
2023-05-30T07:34:39.164Z,13.20
2023-05-30T07:35:39.170Z,13.22
2023-05-30T07:36:39.139Z,13.20
2023-05-30T07:37:39.152Z,13.20
2023-05-30T07:38:39.135Z,13.19
2023-05-30T07:39:39.138Z,13.25
2023-05-30T07:40:39.188Z,13.39
2023-05-30T07:41:39.080Z,13.52
2023-05-30T07:42:39.111Z,13.66
2023-05-30T07:43:39.136Z,13.79
2023-05-30T07:44:39.053Z,13.95
2023-05-30T07:45:41.190Z,14.10
2023-05-30T07:46:39.082Z,14.17
2023-05-30T07:47:39.053Z,14.29
2023-05-30T07:48:39.019Z,14.43
2023-05-30T07:49:38.999Z,14.57
2023-05-30T07:50:38.969Z,14.58
2023-05-30T07:51:39.008Z,14.58
2023-05-30T07:52:39.146Z,14.46
2023-05-30T07:53:38.971Z,14.43
2023-05-30T07:54:38.911Z,14.45
2023-05-30T07:55:38.905Z,14.46
2023-05-30T07:56:38.902Z,14.51
2023-05-30T07:57:38.905Z,14.58
2023-05-30T07:58:38.881Z,14.57
2023-05-30T07:59:38.856Z,14.60
2023-05-30T08:00:38.849Z,14.69
2023-05-30T08:01:38.817Z,14.77
2023-05-30T08:02:38.938Z,14.88
2023-05-30T08:03:39.135Z,14.88
2023-05-30T08:04:38.845Z,14.95
2023-05-30T08:05:38.774Z,14.96
2023-05-30T08:06:38.768Z,14.94
2023-05-30T08:07:40.038Z,14.96
2023-05-30T08:08:38.757Z,15.07
2023-05-30T08:09:38.715Z,15.20
2023-05-30T08:10:38.721Z,15.28
2023-05-30T08:11:38.693Z,15.23
2023-05-30T08:12:38.681Z,15.21
2023-05-30T08:13:38.695Z,15.29
2023-05-30T08:14:40.290Z,15.31
2023-05-30T08:15:38.642Z,15.28
2023-05-30T08:16:38.689Z,15.31
2023-05-30T08:17:38.729Z,15.39
2023-05-30T08:18:38.602Z,15.44
2023-05-30T08:19:38.614Z,15.43
2023-05-30T08:20:38.639Z,15.38
2023-05-30T08:21:38.578Z,15.32
2023-05-30T08:22:38.544Z,15.35
2023-05-30T08:23:38.550Z,15.41
2023-05-30T08:24:38.529Z,15.49
2023-05-30T08:25:38.582Z,15.56
2023-05-30T08:26:38.526Z,15.57
2023-05-30T08:27:38.505Z,15.46
2023-05-30T08:28:38.485Z,15.43
2023-05-30T08:29:38.459Z,15.38
2023-05-30T08:30:38.453Z,15.29
2023-05-30T08:31:38.633Z,15.16
2023-05-30T08:32:38.492Z,15.14
2023-05-30T08:33:38.415Z,15.25
2023-05-30T08:34:38.399Z,15.44
2023-05-30T08:35:38.388Z,15.67
2023-05-30T08:36:38.368Z,15.89
2023-05-30T08:37:38.409Z,16.05
2023-05-30T08:38:38.336Z,16.12
2023-05-30T08:39:38.389Z,16.15
2023-05-30T08:40:38.350Z,16.27
2023-05-30T08:41:38.327Z,16.34
2023-05-30T08:42:38.287Z,16.39
2023-05-30T08:43:38.481Z,16.46
2023-05-30T08:44:38.256Z,16.58
2023-05-30T08:45:38.262Z,16.73
2023-05-30T08:46:38.228Z,16.83
2023-05-30T08:47:38.237Z,16.94
2023-05-30T08:48:38.254Z,16.91
2023-05-30T08:49:38.184Z,16.91
2023-05-30T08:50:38.180Z,16.91
2023-05-30T08:51:38.156Z,16.79
2023-05-30T08:52:38.146Z,16.76
2023-05-30T08:53:38.400Z,16.86
2023-05-30T08:54:41.170Z,16.97
2023-05-30T08:55:38.114Z,17.12
2023-05-30T08:56:38.097Z,17.19
2023-05-30T08:57:43.904Z,17.14
2023-05-30T08:58:39.091Z,17.19
2023-05-30T08:59:38.058Z,17.30
2023-05-30T09:00:38.069Z,17.41
2023-05-30T09:01:38.068Z,17.51
2023-05-30T09:02:38.046Z,17.54
2023-05-30T09:03:38.092Z,17.37
2023-05-30T09:04:38.020Z,17.25
2023-05-30T09:05:37.970Z,17.23
2023-05-30T09:06:37.966Z,17.15
2023-05-30T09:07:37.956Z,17.25
2023-05-30T09:08:37.943Z,17.40
2023-05-30T09:09:37.921Z,17.41
2023-05-30T09:10:37.925Z,17.23
2023-05-30T09:11:37.900Z,17.23
2023-05-30T09:12:37.884Z,17.31
2023-05-30T09:13:37.913Z,17.44
2023-05-30T09:14:37.855Z,17.70
2023-05-30T09:15:37.872Z,17.90
2023-05-30T09:16:37.900Z,18.11
2023-05-30T09:17:37.829Z,18.05
2023-05-30T09:18:37.877Z,17.92
2023-05-30T09:19:37.782Z,17.75
2023-05-30T09:20:37.867Z,17.54
2023-05-30T09:21:37.798Z,17.48
2023-05-30T09:22:37.801Z,17.49
2023-05-30T09:23:37.817Z,17.59
2023-05-30T09:24:37.735Z,17.74
2023-05-30T09:25:37.721Z,17.75
2023-05-30T09:26:37.736Z,17.87
2023-05-30T09:27:37.685Z,17.97
2023-05-30T09:28:37.710Z,17.90
2023-05-30T09:29:37.664Z,17.84
2023-05-30T09:30:37.640Z,17.95
2023-05-30T09:31:37.642Z,18.12
2023-05-30T09:32:37.654Z,18.33
2023-05-30T09:33:37.634Z,18.32
2023-05-30T09:34:37.656Z,18.14
2023-05-30T09:35:37.579Z,18.15
2023-05-30T09:36:37.622Z,18.00
2023-05-30T09:37:37.565Z,17.75
2023-05-30T09:38:37.556Z,17.44
2023-05-30T09:39:37.553Z,17.52
2023-05-30T09:40:37.593Z,17.74
2023-05-30T09:41:37.555Z,18.00
2023-05-30T09:42:37.515Z,18.21
2023-05-30T09:43:37.479Z,18.39
2023-05-30T09:44:37.460Z,18.55
2023-05-30T09:45:37.457Z,18.60
2023-05-30T09:46:37.664Z,18.57
2023-05-30T09:47:37.562Z,18.65
2023-05-30T09:48:37.412Z,18.57
2023-05-30T09:49:37.437Z,18.63
2023-05-30T09:50:37.387Z,18.84
2023-05-30T09:51:37.371Z,19.04
2023-05-30T09:52:37.402Z,19.26
2023-05-30T09:53:37.354Z,19.37
2023-05-30T09:54:37.348Z,19.47
2023-05-30T09:55:37.318Z,19.33
2023-05-30T09:56:37.304Z,19.28
2023-05-30T09:57:37.307Z,19.40
2023-05-30T09:58:37.306Z,19.58
2023-05-30T09:59:37.285Z,19.80
2023-05-30T10:00:37.254Z,19.99
2023-05-30T10:01:37.266Z,20.16
2023-05-30T10:02:37.282Z,20.16
2023-05-30T10:03:37.313Z,20.06
2023-05-30T10:04:37.252Z,19.36
2023-05-30T10:05:37.193Z,18.82
2023-05-30T10:06:37.176Z,18.66
2023-05-30T10:07:37.168Z,18.48
2023-05-30T10:08:37.142Z,18.55
2023-05-30T10:09:37.134Z,18.76
2023-05-30T10:10:37.172Z,18.98
2023-05-30T10:11:37.115Z,19.18
2023-05-30T10:12:37.093Z,19.28
2023-05-30T10:13:37.076Z,19.28
2023-05-30T10:14:37.078Z,19.37
2023-05-30T10:15:37.067Z,19.55
2023-05-30T10:16:37.088Z,19.63
2023-05-30T10:17:37.062Z,19.32
2023-05-30T10:18:37.024Z,19.02
2023-05-30T10:19:37.009Z,18.95
2023-05-30T10:20:37.103Z,19.11
2023-05-30T10:21:36.967Z,19.23
2023-05-30T10:22:36.994Z,19.39
2023-05-30T10:23:36.949Z,19.62
2023-05-30T10:24:36.936Z,19.88
2023-05-30T10:25:36.931Z,19.92
2023-05-30T10:26:36.919Z,19.92
2023-05-30T10:27:36.897Z,19.68
2023-05-30T10:28:36.906Z,19.50
2023-05-30T10:29:36.871Z,19.55
2023-05-30T10:30:36.852Z,19.73
2023-05-30T10:31:36.899Z,19.92
2023-05-30T10:32:36.857Z,20.11
2023-05-30T10:33:56.374Z,20.23
2023-05-30T10:34:37.846Z,20.39
2023-05-30T10:35:37.054Z,20.54
2023-05-30T10:36:36.779Z,20.38
2023-05-30T10:37:36.800Z,20.26
2023-05-30T10:38:36.759Z,20.29
2023-05-30T10:39:36.742Z,20.48
2023-05-30T10:40:36.786Z,20.52
2023-05-30T10:41:46.071Z,20.48
2023-05-30T10:42:37.721Z,20.43
2023-05-30T10:43:36.694Z,20.52
2023-05-30T10:44:36.685Z,20.35
2023-05-30T10:45:36.661Z,20.01
2023-05-30T10:46:36.798Z,19.62
2023-05-30T10:47:36.657Z,19.36
2023-05-30T10:48:36.628Z,19.10
2023-05-30T10:49:36.638Z,19.14
2023-05-30T10:50:36.611Z,19.43
2023-05-30T10:51:36.577Z,19.69
2023-05-30T10:52:36.584Z,19.94
2023-05-30T10:53:36.559Z,20.14
2023-05-30T10:54:36.540Z,20.43
2023-05-30T10:55:36.563Z,20.73
2023-05-30T10:56:36.514Z,21.03
2023-05-30T10:57:36.505Z,21.28
2023-05-30T10:58:37.106Z,21.46
2023-05-30T10:59:36.476Z,21.54
2023-05-30T11:00:36.481Z,21.38
2023-05-30T11:01:36.530Z,21.17
2023-05-30T11:02:36.494Z,21.04
2023-05-30T11:03:36.499Z,21.09
2023-05-30T11:04:40.124Z,21.27
2023-05-30T11:05:37.397Z,21.44
2023-05-30T11:06:36.399Z,21.31
2023-05-30T11:07:36.410Z,20.84
2023-05-30T11:08:36.397Z,20.72
2023-05-30T11:09:36.387Z,20.87
2023-05-30T11:10:36.381Z,21.07
2023-05-30T11:11:36.360Z,21.17
2023-05-30T11:12:36.320Z,21.24
2023-05-30T11:13:36.299Z,21.29
2023-05-30T11:14:36.282Z,21.42
2023-05-30T11:15:36.285Z,21.64
2023-05-30T11:16:36.285Z,21.88
2023-05-30T11:17:36.294Z,22.06
2023-05-30T11:18:36.237Z,22.22
2023-05-30T11:19:36.231Z,22.40
2023-05-30T11:20:36.277Z,22.45
2023-05-30T11:21:36.230Z,22.51
2023-05-30T11:22:36.190Z,22.62
2023-05-30T11:23:36.162Z,22.60
2023-05-30T11:24:36.153Z,22.46
2023-05-30T11:25:36.159Z,22.40
2023-05-30T11:26:36.122Z,22.28
2023-05-30T11:27:36.140Z,21.90
2023-05-30T11:28:36.420Z,21.62
2023-05-30T11:29:36.082Z,21.61
2023-05-30T11:30:36.105Z,21.61
2023-05-30T11:31:36.135Z,21.53
2023-05-30T11:32:36.126Z,21.53
2023-05-30T11:33:36.033Z,21.29
2023-05-30T11:34:36.017Z,21.09
2023-05-30T11:35:36.008Z,21.19
2023-05-30T11:36:36.026Z,21.50
2023-05-30T11:37:35.976Z,21.72
2023-05-30T11:38:36.071Z,21.83
2023-05-30T11:39:35.958Z,22.03
2023-05-30T11:40:35.973Z,22.27
2023-05-30T11:41:35.920Z,22.43
2023-05-30T11:42:35.929Z,22.49
2023-05-30T11:43:35.901Z,22.52
2023-05-30T11:44:35.955Z,22.67
2023-05-30T11:45:35.877Z,22.88
2023-05-30T11:46:35.964Z,23.01
2023-05-30T11:47:45.530Z,23.04
2023-05-30T11:48:36.921Z,22.97
2023-05-30T11:49:35.825Z,22.97
2023-05-30T11:50:35.839Z,22.79
2023-05-30T11:51:35.800Z,22.60
2023-05-30T11:52:35.824Z,22.35
2023-05-30T11:53:35.779Z,22.36
2023-05-30T11:54:35.780Z,22.45
2023-05-30T11:55:35.753Z,22.51
2023-05-30T11:56:35.779Z,22.67
2023-05-30T11:57:35.728Z,22.85
2023-05-30T11:58:36.508Z,22.94
2023-05-30T11:59:35.707Z,23.02
2023-05-30T12:00:35.698Z,22.88
2023-05-30T12:01:35.688Z,22.88
2023-05-30T12:02:35.871Z,22.77
2023-05-30T12:03:35.691Z,22.39
2023-05-30T12:04:35.638Z,22.07
2023-05-30T12:05:35.707Z,22.00
2023-05-30T12:06:35.595Z,21.90
2023-05-30T12:07:35.600Z,21.92
2023-05-30T12:08:35.589Z,22.06
2023-05-30T12:09:35.578Z,22.10
2023-05-30T12:10:35.556Z,22.09
2023-05-30T12:11:35.536Z,22.03
2023-05-30T12:12:35.532Z,22.27
2023-05-30T12:13:35.528Z,22.51
2023-05-30T12:14:35.506Z,22.77
2023-05-30T12:15:35.478Z,23.02
2023-05-30T12:16:35.485Z,23.28
2023-05-30T12:17:35.601Z,23.57
2023-05-30T12:18:35.586Z,23.91
2023-05-30T12:19:35.423Z,24.02
2023-05-30T12:20:35.479Z,23.43
2023-05-30T12:21:35.427Z,22.92
2023-05-30T12:22:35.434Z,22.76
2023-05-30T12:23:35.430Z,22.75
2023-05-30T12:24:35.360Z,22.76
2023-05-30T12:25:35.350Z,22.95
2023-05-30T12:26:35.349Z,23.20
2023-05-30T12:27:35.335Z,23.28
2023-05-30T12:28:35.307Z,23.38
2023-05-30T12:29:35.323Z,23.54
2023-05-30T12:30:35.393Z,23.61
2023-05-30T12:31:35.287Z,23.70
2023-05-30T12:32:35.290Z,23.83
2023-05-30T12:33:35.246Z,23.85
2023-05-30T12:34:35.235Z,23.90
2023-05-30T12:35:35.236Z,24.00
2023-05-30T12:36:35.206Z,24.18
2023-05-30T12:37:35.223Z,24.28
2023-05-30T12:38:35.192Z,24.24
2023-05-30T12:39:35.178Z,24.09
2023-05-30T12:40:35.163Z,23.69
2023-05-30T12:41:35.206Z,23.60
2023-05-30T12:42:35.132Z,23.65
2023-05-30T12:43:35.136Z,23.66
2023-05-30T12:44:35.108Z,23.47
2023-05-30T12:45:35.102Z,23.36
2023-05-30T12:46:35.126Z,23.36
2023-05-30T12:47:35.129Z,23.36
2023-05-30T12:48:37.123Z,23.42
2023-05-30T12:49:35.036Z,23.54
2023-05-30T12:50:35.047Z,23.61
2023-05-30T12:51:35.020Z,23.69
2023-05-30T12:52:35.021Z,23.78
2023-05-30T12:53:35.036Z,23.97
2023-05-30T12:54:35.044Z,24.12
2023-05-30T12:55:35.001Z,24.30
2023-05-30T12:56:34.969Z,24.47
2023-05-30T12:57:34.964Z,24.53
2023-05-30T12:58:34.912Z,24.46
2023-05-30T12:59:34.946Z,24.42
2023-05-30T13:00:36.117Z,24.53